createdAt,value
2019-03-19T00:00:55.086Z,99284.17
2019-03-19T00:03:27.200Z,99281.70
2019-03-19T00:06:01.149Z,99280.23
2019-03-19T00:08:34.818Z,99280.44
2019-03-19T00:11:07.813Z,99279.94
2019-03-19T00:13:40.642Z,99279.26
2019-03-19T00:16:12.680Z,99281.19
2019-03-19T00:18:46.366Z,99278.78
2019-03-19T00:21:17.723Z,99280.59
2019-03-19T00:23:49.720Z,99280.97
2019-03-19T00:26:22.908Z,99275.17
2019-03-19T00:28:56.642Z,99266.48
2019-03-19T00:31:28.878Z,99270.30
2019-03-19T00:34:00.841Z,99274.55
2019-03-19T00:36:35.817Z,99270.59
2019-03-19T00:39:08.767Z,99269.97
2019-03-19T00:41:41.037Z,99268.73
2019-03-19T00:44:13.846Z,99273.69
2019-03-19T00:46:46.847Z,99270.92
2019-03-19T00:49:19.790Z,99268.68
2019-03-19T00:51:55.538Z,99271.13
2019-03-19T00:54:27.855Z,99266.88
2019-03-19T00:57:00.801Z,99276.53
2019-03-19T00:59:34.544Z,99272.61
2019-03-19T01:02:08.085Z,99272.48
2019-03-19T01:04:41.808Z,99277.61
2019-03-19T01:07:16.044Z,99277.61
2019-03-19T01:09:47.948Z,99273.66
2019-03-19T01:12:21.917Z,99276.35
2019-03-19T01:14:54.924Z,99279.34
2019-03-19T01:17:28.337Z,99278.53
2019-03-19T01:20:02.065Z,99274.21
2019-03-19T01:22:35.185Z,99277.34
2019-03-19T01:25:07.897Z,99275.70
2019-03-19T01:27:39.955Z,99273.06
2019-03-19T01:30:14.272Z,99274.02
2019-03-19T01:32:46.157Z,99276.66
2019-03-19T01:35:19.049Z,99273.06
2019-03-19T01:37:52.192Z,99277.41
2019-03-19T01:40:25.899Z,99275.70
2019-03-19T01:42:57.967Z,99274.44
2019-03-19T01:45:30.133Z,99272.86
2019-03-19T01:48:03.586Z,99276.53
2019-03-19T01:50:37.227Z,99276.23
2019-03-19T01:53:09.905Z,99277.27
2019-03-19T01:55:41.245Z,99284.08
2019-03-19T01:58:13.195Z,99285.14
2019-03-19T02:00:46.316Z,99287.98
2019-03-19T02:03:19.255Z,99291.85
2019-03-19T02:05:51.082Z,99281.84
2019-03-19T02:08:26.880Z,99282.22
2019-03-19T02:10:58.458Z,99282.23
2019-03-19T02:13:31.135Z,99276.57
2019-03-19T02:16:04.438Z,99276.48
2019-03-19T02:18:36.655Z,99286.05
2019-03-19T02:21:11.715Z,99284.78
2019-03-19T02:23:43.194Z,99286.94
2019-03-19T02:26:17.038Z,99292.70
2019-03-19T02:28:50.698Z,99288.45
2019-03-19T02:31:22.325Z,99293.03
2019-03-19T02:33:57.199Z,99293.03
2019-03-19T02:36:29.194Z,99292.69
2019-03-19T02:39:01.349Z,99291.71
2019-03-19T02:41:34.444Z,99294.48
2019-03-19T02:44:09.027Z,99301.88
2019-03-19T02:46:40.338Z,99301.22
2019-03-19T02:49:12.701Z,99306.48
2019-03-19T02:51:44.394Z,99221.06
2019-03-19T02:54:16.459Z,99308.80
2019-03-19T02:56:49.325Z,99309.11
2019-03-19T02:59:22.393Z,99313.05
2019-03-19T03:01:54.566Z,99313.24
2019-03-19T03:04:26.407Z,99316.37
2019-03-19T03:06:58.058Z,99322.45
2019-03-19T03:09:31.596Z,99318.80
2019-03-19T03:12:04.482Z,99320.79
2019-03-19T03:14:36.522Z,99322.26
2019-03-19T03:17:08.494Z,99325.57
2019-03-19T03:19:41.342Z,99325.57
2019-03-19T03:22:14.444Z,99325.04
2019-03-19T03:24:48.588Z,99327.52
2019-03-19T03:27:24.343Z,99337.08
2019-03-19T03:29:57.896Z,99334.00
2019-03-19T03:32:31.677Z,99336.48
2019-03-19T03:35:05.657Z,99333.85
2019-03-19T03:37:38.570Z,99337.95
2019-03-19T03:40:11.309Z,99335.81
2019-03-19T03:42:44.508Z,99344.03
2019-03-19T03:45:16.642Z,99343.05
2019-03-19T03:47:49.824Z,99352.56
2019-03-19T03:50:22.607Z,99348.95
2019-03-19T03:52:55.688Z,99348.95
2019-03-19T03:55:31.066Z,99344.38
2019-03-19T03:58:04.725Z,99344.38
2019-03-19T04:00:37.779Z,99347.39
2019-03-19T04:03:11.034Z,99346.61
2019-03-19T04:05:43.472Z,99348.12
2019-03-19T04:08:16.769Z,99347.48
2019-03-19T04:10:49.776Z,99352.41
2019-03-19T04:13:22.813Z,99354.39
2019-03-19T04:15:55.686Z,99354.39
2019-03-19T04:18:28.832Z,99352.77
2019-03-19T04:21:01.920Z,99351.50
2019-03-19T04:23:35.700Z,99358.06
2019-03-19T04:26:07.794Z,99360.72
2019-03-19T04:28:39.813Z,99353.52
2019-03-19T04:31:13.371Z,99358.28
2019-03-19T04:33:46.772Z,99361.06
2019-03-19T04:36:20.010Z,99367.59
2019-03-19T04:38:52.936Z,99366.93
2019-03-19T04:41:25.991Z,99377.78
2019-03-19T04:43:59.054Z,99382.20
2019-03-19T04:46:31.989Z,99386.98
2019-03-19T04:49:04.917Z,99384.84
2019-03-19T04:51:37.965Z,99387.62
2019-03-19T04:54:10.838Z,99389.94
2019-03-19T04:56:43.939Z,99388.77
2019-03-19T04:59:17.818Z,99389.63
2019-03-19T05:01:50.065Z,99390.27
2019-03-19T05:04:23.175Z,99391.13
2019-03-19T05:06:55.263Z,99399.50
2019-03-19T05:09:29.191Z,99387.33
2019-03-19T05:12:02.027Z,99402.45
2019-03-19T05:14:35.033Z,99404.74
2019-03-19T05:17:08.966Z,99404.44
2019-03-19T05:19:42.023Z,99416.27
2019-03-19T05:22:15.085Z,99402.63
2019-03-19T05:24:47.519Z,99407.40
2019-03-19T05:27:22.898Z,99398.36
2019-03-19T05:29:56.203Z,99402.12
2019-03-19T05:32:30.249Z,99402.77
2019-03-19T05:35:02.170Z,99409.83
2019-03-19T05:37:35.192Z,99421.78
2019-03-19T05:40:08.435Z,99413.41
2019-03-19T05:42:42.410Z,99421.42
2019-03-19T05:45:16.121Z,99420.42
2019-03-19T05:47:50.134Z,99433.20
2019-03-19T05:50:24.016Z,99427.23
2019-03-19T05:52:57.349Z,99432.45
2019-03-19T05:55:29.177Z,99432.41
2019-03-19T05:58:02.613Z,99445.56
2019-03-19T06:00:35.765Z,99453.08
2019-03-19T06:03:08.471Z,99450.78
2019-03-19T06:05:41.430Z,99456.20
2019-03-19T06:08:13.180Z,99456.52
2019-03-19T06:10:47.299Z,99460.92
2019-03-19T06:13:19.229Z,99461.52
2019-03-19T06:15:51.412Z,99463.75
2019-03-19T06:18:34.734Z,99462.03
2019-03-19T06:21:01.429Z,99462.78
2019-03-19T06:23:34.482Z,99464.48
2019-03-19T06:26:07.556Z,99469.87
2019-03-19T06:28:40.464Z,99469.59
2019-03-19T06:31:13.355Z,99470.48
2019-03-19T06:33:48.179Z,99476.45
2019-03-19T06:36:22.309Z,99470.22
2019-03-19T06:38:57.563Z,99475.60
2019-03-19T06:41:31.339Z,99474.42
2019-03-19T06:44:02.851Z,99481.72
2019-03-19T06:46:34.499Z,99487.12
2019-03-19T06:49:07.718Z,99483.71
2019-03-19T06:51:39.595Z,99484.84
2019-03-19T06:54:13.614Z,99489.48
2019-03-19T06:56:46.564Z,99491.55
2019-03-19T06:59:20.803Z,99486.22
2019-03-19T07:01:54.676Z,99486.47
2019-03-19T07:04:28.138Z,99483.83
2019-03-19T07:07:03.018Z,99490.06
2019-03-19T07:09:34.580Z,99492.90
2019-03-19T07:12:07.845Z,99493.84
2019-03-19T07:14:40.434Z,99495.41
2019-03-19T07:17:13.633Z,99491.52
2019-03-19T07:19:47.654Z,99383.03
2019-03-19T07:22:19.931Z,99498.59
2019-03-19T07:24:53.718Z,99493.83
2019-03-19T07:27:29.064Z,99501.08
2019-03-19T07:30:01.836Z,99499.98
2019-03-19T07:32:35.815Z,99499.66
2019-03-19T07:35:07.816Z,99501.92
2019-03-19T07:37:39.235Z,99495.96
2019-03-19T07:40:11.657Z,99495.41
2019-03-19T07:42:43.975Z,99496.80
2019-03-19T07:45:17.022Z,99496.80
2019-03-19T07:47:49.925Z,99496.22
2019-03-19T07:50:23.628Z,99509.33
2019-03-19T07:52:55.793Z,99507.54
2019-03-19T07:55:39.667Z,99503.30
2019-03-19T07:58:15.521Z,99504.89
2019-03-19T08:00:49.440Z,99511.84
2019-03-19T08:03:22.944Z,99501.41
2019-03-19T08:05:54.780Z,99505.05
2019-03-19T08:08:29.632Z,99517.91
2019-03-19T08:11:01.941Z,99509.54
2019-03-19T08:13:35.978Z,99504.05
2019-03-19T08:16:09.689Z,99508.72
2019-03-19T08:18:46.349Z,99507.81
2019-03-19T08:21:19.041Z,99508.23
2019-03-19T08:23:53.144Z,99500.62
2019-03-19T08:26:26.084Z,99503.48
2019-03-19T08:28:58.503Z,99509.12
2019-03-19T08:31:33.989Z,99508.91
2019-03-19T08:34:07.975Z,99510.91
2019-03-19T08:36:40.904Z,99505.45
2019-03-19T08:39:15.093Z,99510.54
2019-03-19T08:41:48.870Z,99505.16
2019-03-19T08:44:27.691Z,99506.08
2019-03-19T08:46:58.615Z,99506.95
2019-03-19T08:49:33.000Z,99511.13
2019-03-19T08:52:05.248Z,99512.78
2019-03-19T08:54:38.053Z,99512.59
2019-03-19T08:57:11.099Z,99513.95
2019-03-19T08:59:44.402Z,99514.46
2019-03-19T09:02:17.339Z,99511.48
2019-03-19T09:04:51.188Z,99514.31
2019-03-19T09:07:24.855Z,99521.02
2019-03-19T09:09:57.216Z,99530.91
2019-03-19T09:12:29.287Z,99537.39
2019-03-19T09:15:02.339Z,99533.44
2019-03-19T09:17:36.336Z,99537.33
2019-03-19T09:20:10.138Z,99542.61
2019-03-19T09:22:43.296Z,99547.51
2019-03-19T09:25:17.260Z,99547.28
2019-03-19T09:27:50.249Z,99542.97
2019-03-19T09:30:26.056Z,99542.41
2019-03-19T09:33:00.080Z,99537.30
2019-03-19T09:35:35.285Z,99539.04
2019-03-19T09:38:08.261Z,99533.40
2019-03-19T09:40:43.357Z,99534.27
2019-03-19T09:43:18.916Z,99535.06
2019-03-19T09:45:53.345Z,99536.67
2019-03-19T09:48:28.308Z,99535.45
2019-03-19T09:51:02.320Z,99537.50
2019-03-19T09:53:35.288Z,99535.73
2019-03-19T09:56:08.332Z,99517.62
2019-03-19T09:58:42.697Z,99522.90
2019-03-19T10:01:14.393Z,99532.47
2019-03-19T10:03:48.094Z,99520.98
2019-03-19T10:06:20.356Z,99526.74
2019-03-19T10:08:53.313Z,99527.81
2019-03-19T10:11:28.558Z,99521.20
2019-03-19T10:14:02.474Z,99521.28
2019-03-19T10:16:37.322Z,99525.08
2019-03-19T10:19:13.073Z,99529.69
2019-03-19T10:21:44.542Z,99441.71
2019-03-19T10:24:17.579Z,99526.27
2019-03-19T10:26:51.574Z,99519.15
2019-03-19T10:29:25.916Z,99518.09
2019-03-19T10:32:01.179Z,99525.23
2019-03-19T10:34:33.818Z,99533.38
2019-03-19T10:37:08.371Z,99516.32
2019-03-19T10:39:43.882Z,99516.48
2019-03-19T10:42:17.740Z,99522.71
2019-03-19T10:44:52.244Z,99520.39
2019-03-19T10:47:27.556Z,99519.26
2019-03-19T10:50:02.319Z,99518.09
2019-03-19T10:52:38.095Z,99517.16
2019-03-19T10:55:13.314Z,99521.27
2019-03-19T10:57:45.056Z,99427.87
2019-03-19T11:00:22.425Z,99514.92
2019-03-19T11:02:56.855Z,99513.98
2019-03-19T11:05:28.767Z,99517.03
2019-03-19T11:08:05.622Z,99509.94
2019-03-19T11:10:39.723Z,99510.59
2019-03-19T11:13:13.757Z,99508.89
2019-03-19T11:15:48.229Z,99504.52
2019-03-19T11:18:19.754Z,99503.66
2019-03-19T11:20:53.336Z,99499.59
2019-03-19T11:23:27.015Z,99489.38
2019-03-19T11:26:00.699Z,99480.01
2019-03-19T11:28:33.602Z,99485.23
2019-03-19T11:31:09.422Z,99480.05
2019-03-19T11:33:44.082Z,99473.83
2019-03-19T11:36:17.027Z,99476.59
2019-03-19T11:38:51.632Z,99480.50
2019-03-19T11:41:26.601Z,99484.67
2019-03-19T11:44:00.295Z,99482.52
2019-03-19T11:46:33.750Z,99484.63
2019-03-19T11:49:07.115Z,99476.60
2019-03-19T11:51:43.698Z,99494.36
2019-03-19T11:54:20.888Z,99480.89
2019-03-19T11:56:55.559Z,99489.34
2019-03-19T11:59:30.594Z,99484.76
2019-03-19T12:02:07.770Z,99490.58
2019-03-19T12:04:41.071Z,99488.77
2019-03-19T12:07:14.764Z,99482.00
2019-03-19T12:09:47.299Z,99488.30
2019-03-19T12:12:20.082Z,99488.30
2019-03-19T12:14:54.669Z,99494.03
2019-03-19T12:17:29.026Z,99482.25
2019-03-19T12:20:06.344Z,99486.59
2019-03-19T12:22:38.005Z,99484.80
2019-03-19T12:25:10.969Z,99488.68
2019-03-19T12:27:44.308Z,99488.68
2019-03-19T12:30:22.210Z,99487.47
2019-03-19T12:32:53.187Z,99481.20
2019-03-19T12:35:27.102Z,99482.37
2019-03-19T12:38:11.745Z,99479.27
2019-03-19T12:40:46.504Z,99479.27
2019-03-19T12:43:21.137Z,99475.80
2019-03-19T12:45:59.835Z,99477.59
2019-03-19T12:48:32.117Z,99482.11
2019-03-19T12:51:04.370Z,99472.20
2019-03-19T12:53:39.612Z,99480.69
2019-03-19T12:56:12.293Z,99473.25
2019-03-19T12:58:44.232Z,99475.03
2019-03-19T13:01:17.445Z,99475.97
2019-03-19T13:03:51.755Z,99476.84
2019-03-19T13:06:27.527Z,99477.25
2019-03-19T13:08:59.000Z,99474.58
2019-03-19T13:11:33.565Z,99467.73
2019-03-19T13:14:06.284Z,99476.05
2019-03-19T13:16:39.533Z,99472.56
2019-03-19T13:19:11.981Z,99472.34
2019-03-19T13:21:44.263Z,99469.48
2019-03-19T13:24:17.454Z,99479.41
2019-03-19T13:26:50.652Z,99477.56
2019-03-19T13:29:23.575Z,99469.80
2019-03-19T13:31:56.220Z,99469.80
2019-03-19T13:34:29.486Z,99462.38
2019-03-19T13:37:03.957Z,99467.30
2019-03-19T13:39:38.356Z,99468.69
2019-03-19T13:42:11.291Z,99464.98
2019-03-19T13:44:42.823Z,99474.20
2019-03-19T13:47:15.290Z,99484.18
2019-03-19T13:49:47.729Z,99489.72
2019-03-19T13:52:20.770Z,99508.30
2019-03-19T13:54:53.313Z,99512.83
2019-03-19T13:57:26.946Z,99532.70
2019-03-19T13:59:58.864Z,99519.57
2019-03-19T14:02:32.390Z,99527.55
2019-03-19T14:05:05.937Z,99522.41
2019-03-19T14:07:38.351Z,99528.64
2019-03-19T14:10:11.709Z,99530.30
2019-03-19T14:12:44.408Z,99531.06
2019-03-19T14:15:17.599Z,99524.32
2019-03-19T14:17:52.407Z,99527.51
2019-03-19T14:20:26.448Z,99529.61
2019-03-19T14:22:58.986Z,99537.16
2019-03-19T14:25:32.415Z,99536.63
2019-03-19T14:28:07.436Z,99540.45
2019-03-19T14:30:42.973Z,99536.83
2019-03-19T14:33:14.542Z,99535.09
2019-03-19T14:35:47.558Z,99527.31
2019-03-19T14:38:20.578Z,99537.11
2019-03-19T14:40:52.497Z,99530.66
2019-03-19T14:43:26.444Z,99529.72
2019-03-19T14:45:59.205Z,99521.47
2019-03-19T14:48:32.543Z,99524.70
2019-03-19T14:51:06.184Z,99527.34
2019-03-19T14:53:38.539Z,99524.53
2019-03-19T14:56:13.117Z,99524.94
2019-03-19T14:58:46.622Z,99529.92
2019-03-19T15:01:20.863Z,99526.41
2019-03-19T15:03:53.545Z,99524.01
2019-03-19T15:06:26.691Z,99524.27
2019-03-19T15:08:59.116Z,99527.71
2019-03-19T15:11:34.822Z,99527.71
2019-03-19T15:14:07.696Z,99531.91
2019-03-19T15:16:39.937Z,99535.66
2019-03-19T15:19:11.636Z,99531.79
2019-03-19T15:21:43.746Z,99533.34
2019-03-19T15:24:15.803Z,99535.53
2019-03-19T15:26:47.769Z,99541.78
2019-03-19T15:29:21.029Z,99538.87
2019-03-19T15:31:52.804Z,99533.23
2019-03-19T15:34:24.991Z,99532.50
2019-03-19T15:36:57.722Z,99544.89
2019-03-19T15:39:29.995Z,99546.22
2019-03-19T15:42:04.682Z,99552.70
2019-03-19T15:44:37.837Z,99551.51
2019-03-19T15:47:09.485Z,99556.94
2019-03-19T15:49:42.302Z,99555.75
2019-03-19T15:52:14.819Z,99562.08
2019-03-19T15:54:47.146Z,99560.25
2019-03-19T15:57:21.075Z,99566.56
2019-03-19T15:59:54.008Z,99572.56
2019-03-19T16:02:26.919Z,99572.66
2019-03-19T16:04:59.464Z,99574.30
2019-03-19T16:07:31.991Z,99582.87
2019-03-19T16:10:07.887Z,99573.16
2019-03-19T16:12:40.012Z,99586.18
2019-03-19T16:15:13.290Z,99589.77
2019-03-19T16:17:44.955Z,99560.59
2019-03-19T16:20:17.300Z,99594.42
2019-03-19T16:22:51.227Z,99601.16
2019-03-19T16:25:23.294Z,99601.72
2019-03-19T16:27:57.242Z,99600.91
2019-03-19T16:30:28.922Z,99608.28
2019-03-19T16:33:02.177Z,99614.33
2019-03-19T16:35:36.170Z,99619.23
2019-03-19T16:38:08.081Z,99626.80
2019-03-19T16:40:42.382Z,99626.80
2019-03-19T16:43:15.171Z,99629.78
2019-03-19T16:45:47.310Z,99635.53
2019-03-19T16:48:19.272Z,99633.06
2019-03-19T16:50:51.293Z,99640.94
2019-03-19T16:53:25.826Z,99641.78
2019-03-19T16:56:02.296Z,99644.45
2019-03-19T16:58:35.588Z,99645.86
2019-03-19T17:01:19.101Z,99654.45
2019-03-19T17:03:53.440Z,99654.44
2019-03-19T17:06:28.806Z,99662.22
2019-03-19T17:09:08.234Z,99655.86
2019-03-19T17:11:46.161Z,99661.98
2019-03-19T17:14:22.594Z,99668.89
2019-03-19T17:16:57.268Z,99668.78
2019-03-19T17:19:31.724Z,99667.93
2019-03-19T17:22:05.771Z,99679.66
2019-03-19T17:24:40.756Z,99685.69
2019-03-19T17:27:15.611Z,99688.41
2019-03-19T17:29:51.454Z,99701.28
2019-03-19T17:32:24.434Z,99711.45
2019-03-19T17:34:56.680Z,99718.59
2019-03-19T17:37:30.794Z,99724.11
2019-03-19T17:40:02.887Z,99717.48
2019-03-19T17:42:35.747Z,99722.47
2019-03-19T17:45:10.644Z,99731.81
2019-03-19T17:47:44.742Z,99733.36
2019-03-19T17:50:19.113Z,99741.49
2019-03-19T17:52:53.835Z,99751.81
2019-03-19T17:55:26.645Z,99756.50
2019-03-19T17:58:03.355Z,99756.18
2019-03-19T18:00:40.168Z,99758.51
2019-03-19T18:03:13.379Z,99759.22
2019-03-19T18:05:49.157Z,99754.63
2019-03-19T18:08:22.997Z,99759.11
2019-03-19T18:10:56.770Z,99759.28
2019-03-19T18:13:29.572Z,99767.24
2019-03-19T18:16:02.808Z,99767.77
2019-03-19T18:18:35.879Z,99782.03
2019-03-19T18:21:09.000Z,99784.58
2019-03-19T18:23:41.813Z,99787.29
2019-03-19T18:26:14.905Z,99789.65
2019-03-19T18:28:47.760Z,99790.33
2019-03-19T18:31:22.230Z,99793.52
2019-03-19T18:33:53.638Z,99795.34
2019-03-19T18:36:26.980Z,99801.34
2019-03-19T18:38:58.792Z,99794.72
2019-03-19T18:41:33.196Z,99799.08
2019-03-19T18:44:05.669Z,99801.61
2019-03-19T18:46:37.797Z,99802.17
2019-03-19T18:49:16.757Z,99802.55
2019-03-19T18:51:53.182Z,99699.03
2019-03-19T18:54:24.942Z,99810.56
2019-03-19T18:56:58.808Z,99816.54
2019-03-19T18:59:35.184Z,99811.33
2019-03-19T19:02:09.929Z,99825.95
2019-03-19T19:04:42.822Z,99832.05
2019-03-19T19:07:15.013Z,99828.50
2019-03-19T19:09:48.224Z,99830.58
2019-03-19T19:12:21.173Z,99839.27
2019-03-19T19:14:54.130Z,99839.52
2019-03-19T19:17:27.735Z,99841.43
2019-03-19T19:20:00.364Z,99840.48
2019-03-19T19:22:34.211Z,99848.63
2019-03-19T19:25:07.167Z,99845.85
2019-03-19T19:27:39.016Z,99853.47
2019-03-19T19:30:14.712Z,99856.12
2019-03-19T19:32:48.138Z,99858.77
2019-03-19T19:35:21.108Z,99867.84
2019-03-19T19:37:55.526Z,99865.52
2019-03-19T19:40:27.179Z,99868.99
2019-03-19T19:42:59.656Z,99868.16
2019-03-19T19:45:34.630Z,99861.55
2019-03-19T19:48:06.478Z,99862.70
2019-03-19T19:50:39.405Z,99858.39
2019-03-19T19:53:12.349Z,99865.64
2019-03-19T19:55:46.393Z,99864.69
2019-03-19T19:58:19.578Z,99864.69
2019-03-19T20:00:53.514Z,99869.16
2019-03-19T20:03:30.965Z,99874.45
2019-03-19T20:06:03.248Z,99874.66
2019-03-19T20:08:36.086Z,99870.06
2019-03-19T20:11:11.037Z,99869.28
2019-03-19T20:13:44.633Z,99872.17
2019-03-19T20:16:21.761Z,99876.70
2019-03-19T20:18:54.296Z,99880.19
2019-03-19T20:21:27.655Z,99882.00
2019-03-19T20:23:59.591Z,99888.00
2019-03-19T20:26:33.317Z,99895.28
2019-03-19T20:29:10.588Z,99894.03
2019-03-19T20:31:42.615Z,99893.07
2019-03-19T20:34:15.408Z,99892.25
2019-03-19T20:36:48.307Z,99897.05
2019-03-19T20:39:23.120Z,99900.69
2019-03-19T20:41:59.843Z,99899.06
2019-03-19T20:44:33.513Z,99904.52
2019-03-19T20:47:06.568Z,99907.53
2019-03-19T20:49:47.328Z,99909.06
2019-03-19T20:52:30.901Z,99912.20
2019-03-19T20:55:03.362Z,99913.66
2019-03-19T20:57:37.786Z,99921.44
2019-03-19T21:00:12.209Z,99919.58
2019-03-19T21:02:45.855Z,99914.48
2019-03-19T21:05:21.234Z,99921.10
2019-03-19T21:07:53.525Z,99921.80
2019-03-19T21:10:26.700Z,99926.43
2019-03-19T21:13:00.367Z,99927.81
2019-03-19T21:15:33.070Z,99936.12
2019-03-19T21:18:07.173Z,99934.53
2019-03-19T21:20:41.209Z,99927.45
2019-03-19T21:23:17.582Z,99937.49
2019-03-19T21:25:51.169Z,99937.49
2019-03-19T21:28:25.152Z,99939.34
2019-03-19T21:31:00.047Z,99938.57
2019-03-19T21:33:34.018Z,99945.05
2019-03-19T21:36:10.500Z,99947.72
2019-03-19T21:38:43.712Z,99945.16
2019-03-19T21:41:19.648Z,99952.59
2019-03-19T21:43:55.387Z,99948.65
2019-03-19T21:46:32.538Z,99948.87
2019-03-19T21:49:08.403Z,99954.84
2019-03-19T21:51:44.586Z,99960.98
2019-03-19T21:54:19.869Z,99769.86
2019-03-19T21:56:53.838Z,99958.88
2019-03-19T21:59:27.237Z,99961.39
2019-03-19T22:02:00.984Z,99961.88
2019-03-19T22:04:34.087Z,99960.25
2019-03-19T22:07:07.865Z,99954.64
2019-03-19T22:09:39.415Z,99961.41
2019-03-19T22:12:11.895Z,99959.30
2019-03-19T22:14:44.015Z,99962.30
2019-03-19T22:17:17.748Z,99960.68
2019-03-19T22:19:50.854Z,99970.09
2019-03-19T22:22:23.847Z,99974.55
2019-03-19T22:24:57.743Z,99972.26
2019-03-19T22:27:29.793Z,99973.92
2019-03-19T22:30:03.529Z,99978.27
2019-03-19T22:32:35.809Z,99980.92
2019-03-19T22:35:09.268Z,99978.27
2019-03-19T22:37:41.852Z,99982.55
2019-03-19T22:40:16.380Z,99976.27
2019-03-19T22:42:49.976Z,99975.25
2019-03-19T22:45:24.115Z,99975.92
2019-03-19T23:46:10.117Z,100049.98
2019-03-19T23:48:44.927Z,100039.91
2019-03-19T23:51:18.274Z,100042.88
2019-03-19T23:53:55.284Z,100050.95
2019-03-19T23:56:29.555Z,100049.64
2019-03-19T23:59:03.528Z,100056.05
